Pagrindinis puslapis
METAR-TAF:

METAR-TAF

Oro uostai :

Evenes, Norvegija

platuma: 68-31N, ilguma: 016-41E, Aukštis: 26 m

Dabartinis oras

Ataskaita buvo paskelbta 1 valandą ir 19 minutes, ne 12:50 UTC
Vėjas 9 kt iš Pietvakarių, svyruoja nuo Pietų/Pietryčių ir Vakarų
Temperatūra 18°C
Drėgmė 52%
Slėgis 1025 hPa
Matomumas 10 km arba daugiau
nėra debesų žemiau 1500 m ir nėra kamuolinių lietaus debesų

METAR: ENEV 011250Z 23009KT 160V280 CAVOK 18/08 Q1025 RMK WIND 1400FT 24015KT

Laikas: 16:09 (14:09 UTC)

Prognozė

Ataskaita buvo paskelbta 3 valandos ir 9 minutes, ne 11:00 UTC
Prognozė galioja nuo 01 metu 12 UTC su 01 metu 17 UTC
Vėjas 5 kt iš Pietų
Matomumas 10 km arba daugiau
nėra debesų žemiau 1500 m ir nėra kamuolinių lietaus debesų

TAF: ENEV 011100Z 0112/0117 18005KT CAVOK

Orai ataskaitas ir orų prognozės (METAR, TAF).

turimą stotys yra geltonos ir raudonos taškus žemėlapyje.

Perkelti pele per norėdami pamatyti stoties vardą.

Tada spustelėkite, norėdami matyti oro stebėjimo ir prognozės.

Norėdami pakeisti žemėlapį: spustelėkite ant žalios mygtukų su juodo kryžiaus žemyn,; žalią mygtuką su brūkšneliu, jei norite nutolinti; arba žalių rodyklių gretimoms žemėlapius.


METAR-TAF: